Daily Tabular Data
[Select Refresh to Update]


6/16/19
Time         Wind Dir   Wind Spd  Wind Gust     Hum In   Humidity    Temp In       Temp  Raw Barom   Tot Rain Wind Chill Heat Ix In Heat Index  Dew Point  DailyRain   HourRain   RainRate
                            mph        mph          %          %         F         F         in         in         F         F         F         F         in         in      in/hr
12:00am           236          0          3         53         88       76.5       63.7      29.07      18.97       63.7       77.6       69.0       60.1       0.00       0.00      0.000
12:30am           213          0          1         53         89       76.5       64.2      29.06      18.97       64.2       77.6       69.7       60.9       0.00       0.00      0.000
1:00am            223          0          1         53         88       76.4       64.1      29.05      18.97       64.1       77.5       69.4       60.5       0.00       0.00      0.000
1:30am            243          0          5         53         89       76.3       63.3      29.05      18.97       63.3       77.4       68.8       60.0       0.00       0.00      0.000
2:00am            263          0          4         53         89       76.1       63.3      29.04      18.97       63.3       77.2       68.8       60.0       0.00       0.00      0.000
2:30am            248          0          3         53         88       76.0       63.2      29.04      18.97       63.2       77.1       68.5       59.6       0.00       0.00      0.000
3:00am            260          0          0         53         89       75.9       63.1      29.03      18.97       63.1       77.0       68.6       59.8       0.00       0.00      0.000
3:30am            197          0          2         54         90       75.8       63.3      29.02      18.97       63.3       77.0       68.9       60.3       0.00       0.00      0.000
4:00am            215          0          2         54         88       75.7       63.2      29.02      18.97       63.2       76.9       68.5       59.6       0.00       0.00      0.000
4:30am            248          0          5         53         89       75.7       62.6      29.02      18.97       62.6       76.8       68.1       59.3       0.00       0.00      0.000
5:00am            168          0          0         53         90       75.6       62.7      29.02      18.97       62.7       76.7       68.3       59.7       0.00       0.00      0.000
5:30am            247          0          4         53         91       75.6       63.8      29.03      18.97       63.8       76.7       69.6       61.1       0.00       0.00      0.000
6:00am            250          0          3         54         87       75.5       63.4      29.02      18.97       63.4       76.7       68.6       59.5       0.00       0.00      0.000
6:30am            266          0          4         53         90       75.5       63.6      29.03      18.97       63.6       76.6       69.2       60.6       0.00       0.00      0.000
7:00am            177          0          3         54         90       75.4       63.4      29.03      18.97       63.4       76.6       69.0       60.4       0.00       0.00      0.000
7:30am            174          0          3         53         90       75.4       63.3      29.04      18.97       63.3       76.5       68.9       60.3       0.00       0.00      0.000
8:00am            179          0          3         53         89       75.5       63.7      29.04      18.97       63.7       76.6       69.2       60.4       0.00       0.00      0.000
8:30am            242          0          0         53         89       75.5       63.5      29.04      18.97       63.5       76.6       69.0       60.2       0.00       0.00      0.000
9:00am            247          0          0         53         88       75.4       63.6      29.05      18.97       63.6       76.5       68.9       60.0       0.00       0.00      0.000
9:30am            233          0          0         53         87       75.8       66.0      29.05      18.97       66.0       76.9       71.2       62.0       0.00       0.00      0.000
10:00am           254          0          3         53         86       75.7       64.7      29.05      18.97       64.7       76.8       69.8       60.4       0.00       0.00      0.000
10:30am           209          0          3         55         86       75.2       65.5      29.05      18.97       65.5       76.5       70.6       61.2       0.00       0.00      0.000
11:00am           194          0          3         56         82       75.0       67.1      29.05      18.97       67.1       76.4       71.6       61.4       0.00       0.00      0.000
11:30am           229          0          4         56         82       75.3       67.3      29.05      18.97       67.3       76.7       71.8       61.6       0.00       0.00      0.000
12:00pm           250          0          4         56         80       75.8       68.1      29.05      18.97       68.1       77.2       72.3       61.7       0.00       0.00      0.000
12:30pm           235          0          3         55         78       76.6       70.5      29.04      18.97       70.5       77.9       74.5       63.3       0.00       0.00      0.000
1:00pm            100          3          6         54         73       77.6       72.1      29.04      18.97       72.1       78.8       75.4       63.0       0.00       0.00      0.000
1:30pm            198          3          8         53         73       78.2       72.6      29.03      18.97       72.6       79.3       75.9       63.5       0.00       0.00      0.000
2:00pm             92          0          9         53         74       78.8       72.4      29.03      18.97       72.4       79.9       75.8       63.7       0.00       0.00      0.000
2:30pm            186          2          9         53         77       78.8       71.1      29.03      18.97       71.1       79.9       74.9       63.5       0.00       0.00      0.000
3:00pm             96          3         10         53         76       78.8       70.8      29.02      18.97       70.8       79.9       74.5       62.9       0.00       0.00      0.000
3:30pm            202          0          9         53         79       78.5       69.3      29.02      18.97       69.3       79.6       73.4       62.5       0.00       0.00      0.000
4:00pm            197          0          8         54         84       77.8       68.8      29.02      18.97       68.8       79.0       73.6       63.8       0.00       0.00      0.000
4:30pm            229          2          6         54         83       77.3       66.7      29.01      18.97       66.7       78.5       71.3       61.4       0.00       0.00      0.000
5:00pm            166          4          5         55         86       77.3       66.7      29.01      18.97       66.7       78.6       71.8       62.4       0.00       0.00      0.000
5:30pm             80          2          7         53         84       78.3       67.0      29.00      18.97       67.0       79.4       71.8       62.0       0.00       0.00      0.000
6:00pm            197          0          7         52         86       78.5       65.4      29.00      18.97       65.4       79.5       70.5       61.1       0.00       0.00      0.000
6:30pm            204          0          4         54         88       77.0       64.4      29.01      18.97       64.4       78.2       69.7       60.8       0.00       0.00      0.000
7:00pm            221          0          4         56         90       75.6       64.4      29.02      18.97       64.4       77.0       70.0       61.4       0.00       0.00      0.000
7:30pm            116          0          4         58         92       75.1       63.9      29.02      18.97       63.9       76.7       69.8       61.5       0.00       0.00      0.000
8:00pm            143          0          4         57         93       75.6       63.2      29.02      18.97       63.2       77.1       69.3       61.1       0.00       0.00      0.000
8:30pm            242          0          3         56         94       76.7       62.9      29.02      18.97       62.9       78.1       69.1       61.2       0.00       0.00      0.000
9:00pm            243          0          0         55         94       76.7       62.1      29.03      18.98       62.1       78.0       68.3       60.4       0.01       0.01      0.000
9:30pm            242          0          0         55         96       76.5       62.9      29.03      18.98       62.9       77.8       69.5       61.7       0.01       0.01      0.000
10:00pm           111          3          7         56         95       76.2       62.1      29.04      18.99       62.1       77.6       68.5       60.7       0.02       0.02      0.000
10:30pm           194          0          6         56         96       75.9       62.1      29.05      18.99       62.1       77.3       68.7       60.9       0.02       0.01      0.000
11:00pm           104          4          6         56         95       75.7       61.7      29.04      18.99       61.7       77.1       68.1       60.3       0.02       0.01      0.000
11:30pm           113          2          6         56         95       75.5       61.7      29.04      18.99       61.7       76.9       68.1       60.3       0.02       0.00      0.000